sensor_id;sensor_type;location;lat;lon;timestamp;P1;durP1;ratioP1;P2;durP2;ratioP2
22881;SDS011;11608;50.894;5.296;2023-03-03T00:01:17;53.03;;;44.97;;
22881;SDS011;11608;50.894;5.296;2023-03-03T00:03:43;53.70;;;45.77;;
22881;SDS011;11608;50.894;5.296;2023-03-03T00:06:11;53.07;;;46.37;;
22881;SDS011;11608;50.894;5.296;2023-03-03T00:08:38;54.90;;;45.30;;
22881;SDS011;11608;50.894;5.296;2023-03-03T00:11:04;54.87;;;44.63;;
22881;SDS011;11608;50.894;5.296;2023-03-03T00:13:32;56.10;;;43.83;;
22881;SDS011;11608;50.894;5.296;2023-03-03T00:16:12;52.23;;;42.00;;
22881;SDS011;11608;50.894;5.296;2023-03-03T00:18:41;56.83;;;44.87;;
22881;SDS011;11608;50.894;5.296;2023-03-03T00:21:18;57.60;;;45.27;;
22881;SDS011;11608;50.894;5.296;2023-03-03T00:23:47;55.67;;;44.83;;
22881;SDS011;11608;50.894;5.296;2023-03-03T00:26:28;56.00;;;44.97;;
22881;SDS011;11608;50.894;5.296;2023-03-03T00:28:58;56.17;;;46.17;;
22881;SDS011;11608;50.894;5.296;2023-03-03T00:31:28;55.23;;;44.67;;
22881;SDS011;11608;50.894;5.296;2023-03-03T00:33:56;55.53;;;44.83;;
22881;SDS011;11608;50.894;5.296;2023-03-03T00:36:35;55.17;;;45.67;;
22881;SDS011;11608;50.894;5.296;2023-03-03T00:39:47;52.60;;;43.50;;
22881;SDS011;11608;50.894;5.296;2023-03-03T00:41:48;54.57;;;45.17;;
22881;SDS011;11608;50.894;5.296;2023-03-03T00:46:50;57.67;;;46.80;;
22881;SDS011;11608;50.894;5.296;2023-03-03T00:49:20;57.37;;;44.87;;
22881;SDS011;11608;50.894;5.296;2023-03-03T00:51:48;54.77;;;44.87;;
22881;SDS011;11608;50.894;5.296;2023-03-03T00:54:14;56.93;;;45.60;;
22881;SDS011;11608;50.894;5.296;2023-03-03T00:56:40;57.27;;;44.67;;
22881;SDS011;11608;50.894;5.296;2023-03-03T00:59:06;58.53;;;44.10;;
22881;SDS011;11608;50.894;5.296;2023-03-03T01:01:32;52.53;;;44.07;;
22881;SDS011;11608;50.894;5.296;2023-03-03T01:03:58;54.47;;;45.97;;
22881;SDS011;11608;50.894;5.296;2023-03-03T01:06:24;55.90;;;45.00;;
22881;SDS011;11608;50.894;5.296;2023-03-03T01:08:51;59.20;;;45.63;;
22881;SDS011;11608;50.894;5.296;2023-03-03T01:11:19;58.63;;;47.37;;
22881;SDS011;11608;50.894;5.296;2023-03-03T01:13:46;54.13;;;44.23;;
22881;SDS011;11608;50.894;5.296;2023-03-03T01:16:13;57.63;;;46.67;;
22881;SDS011;11608;50.894;5.296;2023-03-03T01:18:39;59.97;;;45.93;;
22881;SDS011;11608;50.894;5.296;2023-03-03T01:21:06;60.47;;;47.23;;
22881;SDS011;11608;50.894;5.296;2023-03-03T01:23:32;55.93;;;46.27;;
22881;SDS011;11608;50.894;5.296;2023-03-03T01:25:59;53.83;;;43.80;;
22881;SDS011;11608;50.894;5.296;2023-03-03T01:28:25;60.20;;;45.27;;
22881;SDS011;11608;50.894;5.296;2023-03-03T01:30:51;61.83;;;47.13;;
22881;SDS011;11608;50.894;5.296;2023-03-03T01:33:17;65.13;;;45.70;;
22881;SDS011;11608;50.894;5.296;2023-03-03T01:35:44;63.90;;;48.07;;
22881;SDS011;11608;50.894;5.296;2023-03-03T01:38:11;63.93;;;48.33;;
22881;SDS011;11608;50.894;5.296;2023-03-03T01:40:37;61.13;;;45.73;;
22881;SDS011;11608;50.894;5.296;2023-03-03T01:43:03;64.63;;;48.70;;
22881;SDS011;11608;50.894;5.296;2023-03-03T01:45:41;63.43;;;47.60;;
22881;SDS011;11608;50.894;5.296;2023-03-03T01:48:11;71.40;;;49.77;;
22881;SDS011;11608;50.894;5.296;2023-03-03T01:50:49;69.70;;;49.70;;
22881;SDS011;11608;50.894;5.296;2023-03-03T01:53:18;69.00;;;50.13;;
22881;SDS011;11608;50.894;5.296;2023-03-03T01:55:45;69.70;;;51.43;;
22881;SDS011;11608;50.894;5.296;2023-03-03T02:00:45;71.30;;;51.10;;
22881;SDS011;11608;50.894;5.296;2023-03-03T02:03:14;81.40;;;52.73;;
22881;SDS011;11608;50.894;5.296;2023-03-03T02:05:40;81.20;;;53.50;;
22881;SDS011;11608;50.894;5.296;2023-03-03T02:08:06;80.43;;;51.70;;
22881;SDS011;11608;50.894;5.296;2023-03-03T02:10:34;85.53;;;53.87;;
22881;SDS011;11608;50.894;5.296;2023-03-03T02:13:00;77.67;;;50.73;;
22881;SDS011;11608;50.894;5.296;2023-03-03T02:15:27;82.27;;;51.67;;
22881;SDS011;11608;50.894;5.296;2023-03-03T02:17:56;83.17;;;52.20;;
22881;SDS011;11608;50.894;5.296;2023-03-03T02:22:54;79.57;;;53.87;;
22881;SDS011;11608;50.894;5.296;2023-03-03T02:25:27;82.97;;;52.77;;
22881;SDS011;11608;50.894;5.296;2023-03-03T02:27:56;80.73;;;53.23;;
22881;SDS011;11608;50.894;5.296;2023-03-03T02:30:22;85.20;;;53.13;;
22881;SDS011;11608;50.894;5.296;2023-03-03T02:32:48;88.50;;;56.00;;
22881;SDS011;11608;50.894;5.296;2023-03-03T02:37:47;83.87;;;56.00;;
22881;SDS011;11608;50.894;5.296;2023-03-03T02:40:13;83.50;;;54.63;;
22881;SDS011;11608;50.894;5.296;2023-03-03T02:42:40;86.23;;;54.33;;
22881;SDS011;11608;50.894;5.296;2023-03-03T02:45:06;86.53;;;53.33;;
22881;SDS011;11608;50.894;5.296;2023-03-03T02:47:33;90.50;;;53.70;;
22881;SDS011;11608;50.894;5.296;2023-03-03T02:49:59;89.60;;;55.87;;
22881;SDS011;11608;50.894;5.296;2023-03-03T02:52:25;80.70;;;55.73;;
22881;SDS011;11608;50.894;5.296;2023-03-03T02:54:51;83.30;;;55.63;;
22881;SDS011;11608;50.894;5.296;2023-03-03T02:57:17;85.03;;;54.93;;
22881;SDS011;11608;50.894;5.296;2023-03-03T02:59:43;78.23;;;53.13;;
22881;SDS011;11608;50.894;5.296;2023-03-03T03:02:09;81.83;;;51.47;;
22881;SDS011;11608;50.894;5.296;2023-03-03T03:04:35;82.37;;;52.63;;
22881;SDS011;11608;50.894;5.296;2023-03-03T03:07:01;77.13;;;53.03;;
22881;SDS011;11608;50.894;5.296;2023-03-03T03:09:27;76.93;;;50.03;;
22881;SDS011;11608;50.894;5.296;2023-03-03T03:11:53;81.60;;;52.57;;
22881;SDS011;11608;50.894;5.296;2023-03-03T03:14:19;89.53;;;54.93;;
22881;SDS011;11608;50.894;5.296;2023-03-03T03:16:45;83.27;;;54.73;;
22881;SDS011;11608;50.894;5.296;2023-03-03T03:19:11;79.47;;;53.03;;
22881;SDS011;11608;50.894;5.296;2023-03-03T03:21:37;80.03;;;52.83;;
22881;SDS011;11608;50.894;5.296;2023-03-03T03:24:03;76.43;;;52.70;;
22881;SDS011;11608;50.894;5.296;2023-03-03T03:26:29;82.50;;;51.87;;
22881;SDS011;11608;50.894;5.296;2023-03-03T03:28:55;83.33;;;52.97;;
22881;SDS011;11608;50.894;5.296;2023-03-03T03:31:21;80.17;;;50.03;;
22881;SDS011;11608;50.894;5.296;2023-03-03T03:33:47;80.33;;;52.30;;
22881;SDS011;11608;50.894;5.296;2023-03-03T03:36:14;78.90;;;52.03;;
22881;SDS011;11608;50.894;5.296;2023-03-03T03:38:39;80.07;;;53.87;;
22881;SDS011;11608;50.894;5.296;2023-03-03T03:41:06;83.27;;;52.87;;
22881;SDS011;11608;50.894;5.296;2023-03-03T03:43:32;82.13;;;53.67;;
22881;SDS011;11608;50.894;5.296;2023-03-03T03:45:58;84.40;;;52.80;;
22881;SDS011;11608;50.894;5.296;2023-03-03T03:48:24;79.07;;;52.10;;
22881;SDS011;11608;50.894;5.296;2023-03-03T03:50:50;90.67;;;52.97;;
22881;SDS011;11608;50.894;5.296;2023-03-03T03:53:16;83.27;;;53.00;;
22881;SDS011;11608;50.894;5.296;2023-03-03T03:55:43;79.97;;;51.83;;
22881;SDS011;11608;50.894;5.296;2023-03-03T03:58:13;85.60;;;51.93;;
22881;SDS011;11608;50.894;5.296;2023-03-03T04:00:40;78.50;;;50.67;;
22881;SDS011;11608;50.894;5.296;2023-03-03T04:03:06;81.80;;;52.57;;
22881;SDS011;11608;50.894;5.296;2023-03-03T04:05:32;79.73;;;52.77;;
22881;SDS011;11608;50.894;5.296;2023-03-03T04:07:58;80.13;;;51.80;;
22881;SDS011;11608;50.894;5.296;2023-03-03T04:10:24;85.87;;;53.63;;
22881;SDS011;11608;50.894;5.296;2023-03-03T04:12:50;84.70;;;53.20;;
22881;SDS011;11608;50.894;5.296;2023-03-03T04:15:16;82.43;;;53.87;;
22881;SDS011;11608;50.894;5.296;2023-03-03T04:17:42;81.27;;;51.03;;
22881;SDS011;11608;50.894;5.296;2023-03-03T04:20:09;74.83;;;49.00;;
22881;SDS011;11608;50.894;5.296;2023-03-03T04:22:36;73.10;;;50.30;;
22881;SDS011;11608;50.894;5.296;2023-03-03T04:25:02;77.60;;;50.53;;
22881;SDS011;11608;50.894;5.296;2023-03-03T04:27:32;76.17;;;50.93;;
22881;SDS011;11608;50.894;5.296;2023-03-03T04:29:59;73.93;;;49.80;;
22881;SDS011;11608;50.894;5.296;2023-03-03T04:32:25;72.73;;;50.43;;
22881;SDS011;11608;50.894;5.296;2023-03-03T04:34:51;79.27;;;51.30;;
22881;SDS011;11608;50.894;5.296;2023-03-03T04:37:17;76.23;;;50.97;;
22881;SDS011;11608;50.894;5.296;2023-03-03T04:39:44;74.13;;;50.03;;
22881;SDS011;11608;50.894;5.296;2023-03-03T04:42:10;70.60;;;45.40;;
22881;SDS011;11608;50.894;5.296;2023-03-03T04:44:36;63.53;;;45.00;;
22881;SDS011;11608;50.894;5.296;2023-03-03T04:47:02;65.20;;;46.37;;
22881;SDS011;11608;50.894;5.296;2023-03-03T04:49:28;67.00;;;47.00;;
22881;SDS011;11608;50.894;5.296;2023-03-03T04:51:54;66.20;;;46.43;;
22881;SDS011;11608;50.894;5.296;2023-03-03T04:54:20;68.23;;;45.37;;
22881;SDS011;11608;50.894;5.296;2023-03-03T04:56:46;69.60;;;46.10;;
22881;SDS011;11608;50.894;5.296;2023-03-03T04:59:12;72.30;;;48.60;;
22881;SDS011;11608;50.894;5.296;2023-03-03T05:01:39;75.50;;;48.03;;
22881;SDS011;11608;50.894;5.296;2023-03-03T05:04:06;79.07;;;49.20;;
22881;SDS011;11608;50.894;5.296;2023-03-03T05:06:32;70.20;;;48.70;;
22881;SDS011;11608;50.894;5.296;2023-03-03T05:08:58;69.83;;;47.73;;
22881;SDS011;11608;50.894;5.296;2023-03-03T05:11:24;71.13;;;47.97;;
22881;SDS011;11608;50.894;5.296;2023-03-03T05:13:50;70.80;;;47.63;;
22881;SDS011;11608;50.894;5.296;2023-03-03T05:16:16;72.27;;;48.23;;
22881;SDS011;11608;50.894;5.296;2023-03-03T05:18:42;69.83;;;46.03;;
22881;SDS011;11608;50.894;5.296;2023-03-03T05:21:09;75.40;;;47.03;;
22881;SDS011;11608;50.894;5.296;2023-03-03T05:23:35;67.33;;;45.73;;
22881;SDS011;11608;50.894;5.296;2023-03-03T05:26:02;72.30;;;46.17;;
22881;SDS011;11608;50.894;5.296;2023-03-03T05:28:28;66.97;;;43.87;;
22881;SDS011;11608;50.894;5.296;2023-03-03T05:30:54;64.40;;;43.07;;
22881;SDS011;11608;50.894;5.296;2023-03-03T05:33:20;66.43;;;43.23;;
22881;SDS011;11608;50.894;5.296;2023-03-03T05:35:46;69.03;;;43.27;;
22881;SDS011;11608;50.894;5.296;2023-03-03T05:38:12;69.67;;;44.83;;
22881;SDS011;11608;50.894;5.296;2023-03-03T05:40:38;69.80;;;44.20;;
22881;SDS011;11608;50.894;5.296;2023-03-03T05:43:04;69.27;;;44.40;;
22881;SDS011;11608;50.894;5.296;2023-03-03T05:45:31;72.30;;;44.97;;
22881;SDS011;11608;50.894;5.296;2023-03-03T05:47:57;71.57;;;45.77;;
22881;SDS011;11608;50.894;5.296;2023-03-03T05:50:25;72.20;;;45.47;;
22881;SDS011;11608;50.894;5.296;2023-03-03T05:52:51;66.07;;;45.20;;
22881;SDS011;11608;50.894;5.296;2023-03-03T05:55:17;69.80;;;44.47;;
22881;SDS011;11608;50.894;5.296;2023-03-03T05:57:44;64.37;;;46.67;;
22881;SDS011;11608;50.894;5.296;2023-03-03T06:00:11;65.87;;;44.33;;
22881;SDS011;11608;50.894;5.296;2023-03-03T06:02:38;70.60;;;46.07;;
22881;SDS011;11608;50.894;5.296;2023-03-03T06:05:04;66.93;;;45.57;;
22881;SDS011;11608;50.894;5.296;2023-03-03T06:07:30;70.87;;;45.63;;
22881;SDS011;11608;50.894;5.296;2023-03-03T06:09:56;75.73;;;46.30;;
22881;SDS011;11608;50.894;5.296;2023-03-03T06:12:22;68.50;;;45.43;;
22881;SDS011;11608;50.894;5.296;2023-03-03T06:14:48;69.03;;;41.93;;
22881;SDS011;11608;50.894;5.296;2023-03-03T06:17:14;68.97;;;42.60;;
22881;SDS011;11608;50.894;5.296;2023-03-03T06:19:40;71.33;;;41.53;;
22881;SDS011;11608;50.894;5.296;2023-03-03T06:22:06;68.10;;;44.83;;
22881;SDS011;11608;50.894;5.296;2023-03-03T06:24:33;71.80;;;43.47;;
22881;SDS011;11608;50.894;5.296;2023-03-03T06:26:59;66.70;;;41.93;;
22881;SDS011;11608;50.894;5.296;2023-03-03T06:29:25;72.07;;;43.50;;
22881;SDS011;11608;50.894;5.296;2023-03-03T06:31:51;63.10;;;43.33;;
22881;SDS011;11608;50.894;5.296;2023-03-03T06:34:18;61.73;;;42.70;;
22881;SDS011;11608;50.894;5.296;2023-03-03T06:36:44;62.80;;;42.30;;
22881;SDS011;11608;50.894;5.296;2023-03-03T06:39:10;63.80;;;44.20;;
22881;SDS011;11608;50.894;5.296;2023-03-03T06:41:36;67.20;;;43.17;;
22881;SDS011;11608;50.894;5.296;2023-03-03T06:44:02;60.97;;;40.60;;
22881;SDS011;11608;50.894;5.296;2023-03-03T06:46:28;66.50;;;44.23;;
22881;SDS011;11608;50.894;5.296;2023-03-03T06:48:54;62.33;;;41.80;;
22881;SDS011;11608;50.894;5.296;2023-03-03T06:53:47;69.57;;;40.03;;
22881;SDS011;11608;50.894;5.296;2023-03-03T06:56:14;61.50;;;40.03;;
22881;SDS011;11608;50.894;5.296;2023-03-03T06:58:41;68.30;;;40.03;;
22881;SDS011;11608;50.894;5.296;2023-03-03T07:01:12;61.23;;;39.03;;
22881;SDS011;11608;50.894;5.296;2023-03-03T07:03:40;59.83;;;38.17;;
22881;SDS011;11608;50.894;5.296;2023-03-03T07:06:17;59.87;;;39.87;;
22881;SDS011;11608;50.894;5.296;2023-03-03T07:08:45;58.43;;;38.17;;
22881;SDS011;11608;50.894;5.296;2023-03-03T07:11:11;71.23;;;41.60;;
22881;SDS011;11608;50.894;5.296;2023-03-03T07:13:41;67.27;;;39.93;;
22881;SDS011;11608;50.894;5.296;2023-03-03T07:16:10;71.60;;;39.90;;
22881;SDS011;11608;50.894;5.296;2023-03-03T07:18:50;68.23;;;40.97;;
22881;SDS011;11608;50.894;5.296;2023-03-03T07:21:18;70.20;;;40.73;;
22881;SDS011;11608;50.894;5.296;2023-03-03T07:23:45;66.50;;;41.47;;
22881;SDS011;11608;50.894;5.296;2023-03-03T07:26:12;67.17;;;40.07;;
22881;SDS011;11608;50.894;5.296;2023-03-03T07:28:39;73.37;;;42.07;;
22881;SDS011;11608;50.894;5.296;2023-03-03T07:31:15;66.83;;;42.07;;
22881;SDS011;11608;50.894;5.296;2023-03-03T07:33:45;71.10;;;43.03;;
22881;SDS011;11608;50.894;5.296;2023-03-03T07:39:27;69.30;;;40.47;;
22881;SDS011;11608;50.894;5.296;2023-03-03T07:44:40;56.27;;;39.17;;
22881;SDS011;11608;50.894;5.296;2023-03-03T07:47:28;62.83;;;38.97;;
22881;SDS011;11608;50.894;5.296;2023-03-03T07:49:54;63.90;;;39.47;;
22881;SDS011;11608;50.894;5.296;2023-03-03T07:54:53;60.30;;;38.73;;
22881;SDS011;11608;50.894;5.296;2023-03-03T07:57:24;58.87;;;39.67;;
22881;SDS011;11608;50.894;5.296;2023-03-03T07:59:56;57.10;;;39.97;;
22881;SDS011;11608;50.894;5.296;2023-03-03T08:02:42;68.00;;;41.47;;
22881;SDS011;11608;50.894;5.296;2023-03-03T08:05:51;64.93;;;40.07;;
22881;SDS011;11608;50.894;5.296;2023-03-03T08:10:52;64.57;;;40.37;;
22881;SDS011;11608;50.894;5.296;2023-03-03T08:13:23;61.63;;;38.30;;
22881;SDS011;11608;50.894;5.296;2023-03-03T08:15:49;57.97;;;39.60;;
22881;SDS011;11608;50.894;5.296;2023-03-03T08:18:27;60.53;;;38.23;;
22881;SDS011;11608;50.894;5.296;2023-03-03T08:20:57;61.50;;;40.40;;
22881;SDS011;11608;50.894;5.296;2023-03-03T08:23:24;62.20;;;39.83;;
22881;SDS011;11608;50.894;5.296;2023-03-03T08:25:51;63.20;;;40.47;;
22881;SDS011;11608;50.894;5.296;2023-03-03T08:28:17;56.37;;;38.27;;
22881;SDS011;11608;50.894;5.296;2023-03-03T08:30:44;56.97;;;38.73;;
22881;SDS011;11608;50.894;5.296;2023-03-03T08:33:10;55.73;;;39.30;;
22881;SDS011;11608;50.894;5.296;2023-03-03T08:35:36;59.97;;;40.20;;
22881;SDS011;11608;50.894;5.296;2023-03-03T08:38:02;58.87;;;38.93;;
22881;SDS011;11608;50.894;5.296;2023-03-03T08:40:29;51.10;;;38.80;;
22881;SDS011;11608;50.894;5.296;2023-03-03T08:42:55;50.07;;;37.63;;
22881;SDS011;11608;50.894;5.296;2023-03-03T08:45:22;53.67;;;39.30;;
22881;SDS011;11608;50.894;5.296;2023-03-03T08:47:48;51.40;;;37.77;;
22881;SDS011;11608;50.894;5.296;2023-03-03T08:50:14;53.47;;;39.07;;
22881;SDS011;11608;50.894;5.296;2023-03-03T08:52:40;49.03;;;37.53;;
22881;SDS011;11608;50.894;5.296;2023-03-03T08:55:06;48.27;;;37.70;;
22881;SDS011;11608;50.894;5.296;2023-03-03T08:57:32;50.00;;;37.80;;
22881;SDS011;11608;50.894;5.296;2023-03-03T08:59:58;51.67;;;37.83;;
22881;SDS011;11608;50.894;5.296;2023-03-03T09:02:24;47.60;;;37.30;;
22881;SDS011;11608;50.894;5.296;2023-03-03T09:04:50;50.83;;;37.77;;
22881;SDS011;11608;50.894;5.296;2023-03-03T09:07:16;50.57;;;38.63;;
22881;SDS011;11608;50.894;5.296;2023-03-03T09:09:43;49.80;;;38.73;;
22881;SDS011;11608;50.894;5.296;2023-03-03T09:12:20;61.17;;;38.63;;
22881;SDS011;11608;50.894;5.296;2023-03-03T09:14:47;58.83;;;39.47;;
22881;SDS011;11608;50.894;5.296;2023-03-03T09:19:49;51.33;;;37.33;;
22881;SDS011;11608;50.894;5.296;2023-03-03T09:22:20;49.07;;;37.23;;
22881;SDS011;11608;50.894;5.296;2023-03-03T09:24:46;44.23;;;34.73;;
22881;SDS011;11608;50.894;5.296;2023-03-03T09:29:48;49.77;;;37.77;;
22881;SDS011;11608;50.894;5.296;2023-03-03T09:32:32;53.07;;;37.27;;
22881;SDS011;11608;50.894;5.296;2023-03-03T09:37:43;48.63;;;36.43;;
22881;SDS011;11608;50.894;5.296;2023-03-03T09:40:25;50.77;;;37.30;;
22881;SDS011;11608;50.894;5.296;2023-03-03T09:46:06;46.73;;;36.03;;
22881;SDS011;11608;50.894;5.296;2023-03-03T09:48:37;52.37;;;36.93;;
22881;SDS011;11608;50.894;5.296;2023-03-03T09:51:09;53.03;;;37.47;;
22881;SDS011;11608;50.894;5.296;2023-03-03T10:15:52;51.83;;;37.93;;
22881;SDS011;11608;50.894;5.296;2023-03-03T10:18:27;48.13;;;35.30;;
22881;SDS011;11608;50.894;5.296;2023-03-03T10:31:26;46.13;;;34.47;;
22881;SDS011;11608;50.894;5.296;2023-03-03T10:39:08;48.20;;;35.63;;
22881;SDS011;11608;50.894;5.296;2023-03-03T10:41:42;45.40;;;35.53;;
22881;SDS011;11608;50.894;5.296;2023-03-03T10:44:19;44.37;;;35.10;;
22881;SDS011;11608;50.894;5.296;2023-03-03T10:46:51;42.23;;;34.27;;
22881;SDS011;11608;50.894;5.296;2023-03-03T10:54:56;43.53;;;35.13;;
22881;SDS011;11608;50.894;5.296;2023-03-03T10:57:35;44.80;;;33.97;;
22881;SDS011;11608;50.894;5.296;2023-03-03T11:02:51;47.03;;;35.43;;
22881;SDS011;11608;50.894;5.296;2023-03-03T11:08:04;44.13;;;34.60;;
22881;SDS011;11608;50.894;5.296;2023-03-03T11:10:36;46.67;;;35.03;;
22881;SDS011;11608;50.894;5.296;2023-03-03T11:13:29;50.93;;;36.00;;
22881;SDS011;11608;50.894;5.296;2023-03-03T11:16:13;44.73;;;34.30;;
22881;SDS011;11608;50.894;5.296;2023-03-03T11:18:49;45.60;;;34.77;;
22881;SDS011;11608;50.894;5.296;2023-03-03T11:21:32;44.33;;;35.53;;
22881;SDS011;11608;50.894;5.296;2023-03-03T11:24:18;50.03;;;36.13;;
22881;SDS011;11608;50.894;5.296;2023-03-03T11:37:22;44.23;;;35.87;;
22881;SDS011;11608;50.894;5.296;2023-03-03T11:39:49;48.33;;;36.53;;
22881;SDS011;11608;50.894;5.296;2023-03-03T11:42:30;44.97;;;35.33;;
22881;SDS011;11608;50.894;5.296;2023-03-03T11:45:13;44.90;;;35.23;;
22881;SDS011;11608;50.894;5.296;2023-03-03T11:47:42;41.73;;;35.10;;
22881;SDS011;11608;50.894;5.296;2023-03-03T11:50:14;44.17;;;34.67;;
22881;SDS011;11608;50.894;5.296;2023-03-03T11:57:50;42.40;;;34.13;;
22881;SDS011;11608;50.894;5.296;2023-03-03T12:00:25;41.60;;;33.17;;
22881;SDS011;11608;50.894;5.296;2023-03-03T12:08:35;39.73;;;34.13;;
22881;SDS011;11608;50.894;5.296;2023-03-03T12:21:45;42.83;;;33.00;;
22881;SDS011;11608;50.894;5.296;2023-03-03T12:29:42;49.10;;;35.13;;
22881;SDS011;11608;50.894;5.296;2023-03-03T12:32:37;42.80;;;34.33;;
22881;SDS011;11608;50.894;5.296;2023-03-03T12:37:45;44.87;;;34.00;;
22881;SDS011;11608;50.894;5.296;2023-03-03T12:40:18;43.67;;;34.27;;
22881;SDS011;11608;50.894;5.296;2023-03-03T12:45:17;47.00;;;33.83;;
22881;SDS011;11608;50.894;5.296;2023-03-03T12:47:52;44.97;;;34.20;;
22881;SDS011;11608;50.894;5.296;2023-03-03T12:50:23;42.60;;;33.30;;
22881;SDS011;11608;50.894;5.296;2023-03-03T12:58:10;41.40;;;32.10;;
22881;SDS011;11608;50.894;5.296;2023-03-03T13:00:53;38.27;;;32.37;;
22881;SDS011;11608;50.894;5.296;2023-03-03T13:03:42;39.33;;;31.60;;
22881;SDS011;11608;50.894;5.296;2023-03-03T13:06:14;42.90;;;33.70;;
22881;SDS011;11608;50.894;5.296;2023-03-03T13:13:57;36.40;;;30.92;;
22881;SDS011;11608;50.894;5.296;2023-03-03T13:16:37;36.53;;;30.73;;
22881;SDS011;11608;50.894;5.296;2023-03-03T13:19:08;40.65;;;33.08;;
22881;SDS011;11608;50.894;5.296;2023-03-03T13:21:39;42.97;;;32.40;;
22881;SDS011;11608;50.894;5.296;2023-03-03T13:24:14;38.92;;;32.70;;
22881;SDS011;11608;50.894;5.296;2023-03-03T13:26:42;40.83;;;32.40;;
22881;SDS011;11608;50.894;5.296;2023-03-03T13:29:19;41.60;;;32.63;;
22881;SDS011;11608;50.894;5.296;2023-03-03T13:31:53;38.43;;;31.33;;
22881;SDS011;11608;50.894;5.296;2023-03-03T13:36:47;37.90;;;31.17;;
22881;SDS011;11608;50.894;5.296;2023-03-03T13:41:50;38.80;;;31.55;;
22881;SDS011;11608;50.894;5.296;2023-03-03T13:44:26;37.93;;;32.13;;
22881;SDS011;11608;50.894;5.296;2023-03-03T13:52:27;34.80;;;28.52;;
22881;SDS011;11608;50.894;5.296;2023-03-03T14:00:47;36.47;;;30.25;;
22881;SDS011;11608;50.894;5.296;2023-03-03T14:06:22;38.58;;;31.08;;
22881;SDS011;11608;50.894;5.296;2023-03-03T14:16:21;36.42;;;30.08;;
22881;SDS011;11608;50.894;5.296;2023-03-03T14:19:02;34.95;;;29.92;;
22881;SDS011;11608;50.894;5.296;2023-03-03T14:21:34;33.17;;;29.38;;
22881;SDS011;11608;50.894;5.296;2023-03-03T14:26:29;31.98;;;28.58;;
22881;SDS011;11608;50.894;5.296;2023-03-03T14:32:00;33.83;;;29.75;;
22881;SDS011;11608;50.894;5.296;2023-03-03T14:39:40;34.30;;;28.98;;
22881;SDS011;11608;50.894;5.296;2023-03-03T14:42:11;33.22;;;29.23;;
22881;SDS011;11608;50.894;5.296;2023-03-03T14:49:37;37.25;;;30.67;;
22881;SDS011;11608;50.894;5.296;2023-03-03T14:54:43;33.72;;;28.98;;
22881;SDS011;11608;50.894;5.296;2023-03-03T15:02:43;39.97;;;29.35;;
22881;SDS011;11608;50.894;5.296;2023-03-03T15:05:30;35.60;;;29.17;;
22881;SDS011;11608;50.894;5.296;2023-03-03T15:07:57;36.35;;;30.42;;
22881;SDS011;11608;50.894;5.296;2023-03-03T15:13:07;36.42;;;30.42;;
22881;SDS011;11608;50.894;5.296;2023-03-03T15:15:34;33.95;;;28.88;;
22881;SDS011;11608;50.894;5.296;2023-03-03T15:18:14;38.08;;;31.27;;
22881;SDS011;11608;50.894;5.296;2023-03-03T15:33:57;33.05;;;28.73;;
22881;SDS011;11608;50.894;5.296;2023-03-03T15:36:59;33.63;;;29.60;;
22881;SDS011;11608;50.894;5.296;2023-03-03T15:41:57;32.58;;;28.75;;
22881;SDS011;11608;50.894;5.296;2023-03-03T16:02:56;34.25;;;29.05;;
22881;SDS011;11608;50.894;5.296;2023-03-03T16:06:00;36.13;;;29.17;;
22881;SDS011;11608;50.894;5.296;2023-03-03T16:18:39;33.25;;;28.67;;
22881;SDS011;11608;50.894;5.296;2023-03-03T16:21:13;32.53;;;28.60;;
22881;SDS011;11608;50.894;5.296;2023-03-03T16:23:57;35.47;;;29.05;;
22881;SDS011;11608;50.894;5.296;2023-03-03T16:31:35;34.22;;;30.58;;
22881;SDS011;11608;50.894;5.296;2023-03-03T16:34:23;38.92;;;31.23;;
22881;SDS011;11608;50.894;5.296;2023-03-03T16:42:55;34.35;;;30.05;;
22881;SDS011;11608;50.894;5.296;2023-03-03T16:47:37;37.67;;;29.65;;
22881;SDS011;11608;50.894;5.296;2023-03-03T16:52:40;34.58;;;29.50;;
22881;SDS011;11608;50.894;5.296;2023-03-03T16:58:04;33.03;;;29.42;;
22881;SDS011;11608;50.894;5.296;2023-03-03T17:00:27;34.60;;;30.90;;
22881;SDS011;11608;50.894;5.296;2023-03-03T17:03:02;38.28;;;31.30;;
22881;SDS011;11608;50.894;5.296;2023-03-03T17:16:00;36.33;;;30.35;;
22881;SDS011;11608;50.894;5.296;2023-03-03T17:18:38;40.58;;;31.08;;
22881;SDS011;11608;50.894;5.296;2023-03-03T17:21:26;37.05;;;30.92;;
22881;SDS011;11608;50.894;5.296;2023-03-03T17:24:01;40.78;;;32.53;;
22881;SDS011;11608;50.894;5.296;2023-03-03T17:26:33;37.42;;;31.33;;
22881;SDS011;11608;50.894;5.296;2023-03-03T17:29:19;42.13;;;32.37;;
22881;SDS011;11608;50.894;5.296;2023-03-03T17:37:22;40.20;;;32.60;;
22881;SDS011;11608;50.894;5.296;2023-03-03T17:45:19;41.37;;;32.80;;
22881;SDS011;11608;50.894;5.296;2023-03-03T17:50:33;40.47;;;33.37;;
22881;SDS011;11608;50.894;5.296;2023-03-03T17:55:54;42.83;;;35.17;;
22881;SDS011;11608;50.894;5.296;2023-03-03T18:06:45;41.07;;;32.83;;
22881;SDS011;11608;50.894;5.296;2023-03-03T18:09:36;42.47;;;33.73;;
22881;SDS011;11608;50.894;5.296;2023-03-03T18:22:30;43.13;;;33.50;;
22881;SDS011;11608;50.894;5.296;2023-03-03T18:27:36;45.80;;;33.90;;
22881;SDS011;11608;50.894;5.296;2023-03-03T18:35:21;43.63;;;35.30;;
22881;SDS011;11608;50.894;5.296;2023-03-03T18:37:48;41.40;;;34.03;;
22881;SDS011;11608;50.894;5.296;2023-03-03T18:40:18;40.33;;;33.07;;
22881;SDS011;11608;50.894;5.296;2023-03-03T18:42:46;44.17;;;32.70;;
22881;SDS011;11608;50.894;5.296;2023-03-03T18:53:24;50.37;;;35.27;;
22881;SDS011;11608;50.894;5.296;2023-03-03T18:56:00;48.00;;;35.80;;
22881;SDS011;11608;50.894;5.296;2023-03-03T18:58:32;44.33;;;35.30;;
22881;SDS011;11608;50.894;5.296;2023-03-03T19:03:30;44.30;;;34.33;;
22881;SDS011;11608;50.894;5.296;2023-03-03T19:05:58;42.67;;;35.30;;
22881;SDS011;11608;50.894;5.296;2023-03-03T19:16:43;44.93;;;36.67;;
22881;SDS011;11608;50.894;5.296;2023-03-03T19:31:38;49.97;;;39.00;;
22881;SDS011;11608;50.894;5.296;2023-03-03T19:34:06;50.60;;;37.93;;
22881;SDS011;11608;50.894;5.296;2023-03-03T19:37:09;51.77;;;38.17;;
22881;SDS011;11608;50.894;5.296;2023-03-03T19:50:29;50.17;;;39.27;;
22881;SDS011;11608;50.894;5.296;2023-03-03T20:08:09;46.70;;;37.47;;
22881;SDS011;11608;50.894;5.296;2023-03-03T20:18:04;50.17;;;39.00;;
22881;SDS011;11608;50.894;5.296;2023-03-03T20:23:06;55.20;;;41.40;;
22881;SDS011;11608;50.894;5.296;2023-03-03T20:38:43;51.93;;;39.33;;
22881;SDS011;11608;50.894;5.296;2023-03-03T20:41:15;46.93;;;36.57;;
22881;SDS011;11608;50.894;5.296;2023-03-03T20:43:54;48.37;;;37.97;;
22881;SDS011;11608;50.894;5.296;2023-03-03T20:46:34;50.50;;;37.47;;
22881;SDS011;11608;50.894;5.296;2023-03-03T21:04:23;53.03;;;40.97;;
22881;SDS011;11608;50.894;5.296;2023-03-03T21:06:50;52.43;;;41.20;;
22881;SDS011;11608;50.894;5.296;2023-03-03T21:09:24;51.03;;;40.63;;
22881;SDS011;11608;50.894;5.296;2023-03-03T21:11:50;49.73;;;39.77;;
22881;SDS011;11608;50.894;5.296;2023-03-03T21:14:30;51.70;;;39.70;;
22881;SDS011;11608;50.894;5.296;2023-03-03T21:16:58;51.83;;;39.80;;
22881;SDS011;11608;50.894;5.296;2023-03-03T21:21:56;54.07;;;40.40;;